Stations météo

réclame
Mon MeteoGroup
Monte Scuro, Italie (16344): Température de l'air & dewpoint: 11.10.2017 09:00:00 - 17.10.2017 09:00:00 (CEST)Monte Scuro, Italie (16344): Vitesse du vent: 11.10.2017 09:00:00 - 17.10.2017 09:00:00 (CEST)Monte Scuro, Italie (16344): Direction du vent: 11.10.2017 09:00:00 - 17.10.2017 09:00:00 (CEST)Monte Scuro, Italie (16344): visibility: 11.10.2017 09:00:00 - 17.10.2017 09:00:00 (CEST)Monte Scuro, Italie (16344): Ensoleillement: 11.10.2017 09:00:00 - 17.10.2017 09:00:00 (CEST)
Date & Time tt [°C] td [°C] ff [km/h] ff [knt] dd vv [km] sd [min]
17.10.2017 09:00:00 14,8 1,4 4 2 ENE 30 60
17.10.2017 08:00:00 13,0 2,5 9 5 NNE 25 30
17.10.2017 07:00:00 12,0 1,3 11 6 E 15 -
17.10.2017 06:00:00 12,0 0,7 24 13 ENE 10 -
17.10.2017 05:00:00 12,0 1,6 24 13 ENE 10 -
17.10.2017 04:00:00 12,0 1,6 24 13 ENE 10 -
17.10.2017 03:00:00 12,0 1,3 24 13 ENE 10 -
17.10.2017 02:00:00 12,0 1,9 24 13 ENE 10 -
17.10.2017 01:00:00 12,0 2,5 24 13 ENE 10 -
17.10.2017 00:00:00 12,0 2,5 24 13 ENE 10 -
16.10.2017 23:00:00 12,0 1,9 18 10 ENE 10 -
16.10.2017 22:00:00 12,0 1,9 18 10 ENE 10 -
16.10.2017 21:00:00 12,2 3,2 18 10 ENE 10 -
16.10.2017 20:00:00 12,4 3,6 15 8 ENE 10 -
16.10.2017 19:00:00 13,0 3,1 15 8 NNE 10 -
16.10.2017 18:00:00 14,4 3,2 5 3 W 20 60
16.10.2017 17:00:00 15,0 3,5 9 5 W 25 60
16.10.2017 16:00:00 15,8 4,2 9 5 W 25 60
16.10.2017 15:00:00 16,0 5,6 9 5 W 25 60
16.10.2017 14:00:00 15,8 6,3 9 5 WNW 25 60
16.10.2017 13:00:00 16,0 5,6 9 5 WNW 30 60
16.10.2017 12:00:00 16,0 0,6 11 6 NNE 10 60
16.10.2017 11:00:00 15,0 0,4 15 8 NNE 30 60
16.10.2017 10:00:00 15,0 -0,3 22 12 ENE 10 60
16.10.2017 09:00:00 13,4 -7,3 22 12 NE 20 60
16.10.2017 08:00:00 13,0 -4,2 22 12 NE 20 60
16.10.2017 07:00:00 11,0 -14,6 28 15 NNE 10 -
16.10.2017 06:00:00 10,8 1,1 28 15 NNE 10 -
16.10.2017 05:00:00 10,8 1,9 31 17 NE 10 -
16.10.2017 04:00:00 10,8 1,4 29 16 NE 10 -
16.10.2017 03:00:00 10,8 2,1 24 13 ENE 10 -
16.10.2017 02:00:00 11,0 2,3 22 12 ENE 10 -
16.10.2017 01:00:00 11,0 2,3 28 15 ENE 10 -
16.10.2017 00:00:00 11,0 2,3 28 15 ENE 10 -
15.10.2017 23:00:00 11,0 2,3 21 11 ENE 10 -
15.10.2017 22:00:00 11,0 2,1 29 16 ENE 10 -
15.10.2017 21:00:00 13,0 3,1 18 10 ENE 10 -
15.10.2017 20:00:00 11,8 1,7 22 12 ENE 10 -
15.10.2017 19:00:00 13,0 -0,3 22 12 ENE 10 -
15.10.2017 18:00:00 13,4 0,1 9 5 E 20 60
15.10.2017 17:00:00 14,2 -1,4 11 6 E 20 60
15.10.2017 16:00:00 14,8 3,6 11 6 E 10 60
15.10.2017 15:00:00 14,8 2,7 13 7 E 10 60
15.10.2017 14:00:00 14,8 2,4 18 10 E 20 60
15.10.2017 13:00:00 14,8 1,4 18 10 E 20 60
15.10.2017 12:00:00 15,0 -0,3 16 9 E 20 60
15.10.2017 11:00:00 15,0 -0,7 15 8 E 20 60
15.10.2017 10:00:00 13,6 -3,6 29 16 NE 25 60
15.10.2017 09:00:00 12,2 -4,0 26 14 NNE 25 60
15.10.2017 08:00:00 11,0 -3,9 29 16 NNE 20 42
15.10.2017 07:00:00 10,4 -5,2 34 18 NNE 20 -
15.10.2017 06:00:00 9,4 -5,3 34 18 NE 10 -
15.10.2017 05:00:00 9,4 -4,5 31 17 NNE 10 -
15.10.2017 04:00:00 9,4 -6,5 34 18 NNE 20 -
15.10.2017 03:00:00 9,4 -6,1 31 17 NNE 20 -
15.10.2017 02:00:00 8,8 3,6 31 17 NNE 10 -
15.10.2017 01:00:00 9,0 4,6 34 18 N 10 -
15.10.2017 00:00:00 9,0 4,4 35 19 NNE 10 -
14.10.2017 23:00:00 9,0 3,6 37 20 NNE 10 -
14.10.2017 22:00:00 9,0 5,2 28 15 NE 10 -
14.10.2017 21:00:00 9,2 6,8 31 17 NNE 10 -
14.10.2017 20:00:00 9,4 6,5 28 15 NNE 10 -
14.10.2017 19:00:00 10,0 2,8 31 17 NE 20 24
14.10.2017 18:00:00 11,2 -0,6 26 14 N 10 60
14.10.2017 17:00:00 11,4 -0,1 28 15 N 20 60
14.10.2017 16:00:00 12,0 1,0 22 12 NNE 20 60
14.10.2017 15:00:00 13,0 0,7 28 15 N 30 60
14.10.2017 14:00:00 13,0 0,7 31 17 N 30 60
14.10.2017 13:00:00 13,0 2,0 31 17 NNE 30 60
14.10.2017 12:00:00 12,0 1,0 24 13 NNE 30 60
14.10.2017 11:00:00 11,8 2,0 28 15 NNE 25 60
14.10.2017 10:00:00 10,0 -0,8 34 18 ENE 25 60
14.10.2017 09:00:00 9,2 -0,7 28 15 ENE 10 60
14.10.2017 08:00:00 8,0 1,2 28 15 NNE 25 36
14.10.2017 07:00:00 7,0 5,5 18 10 WNW 15 -
14.10.2017 06:00:00 8,0 6,5 5 3 W 10 -
14.10.2017 05:00:00 8,0 7,2 0 0 N 10 -
14.10.2017 04:00:00 8,0 6,5 11 6 W 10 -
14.10.2017 03:00:00 8,0 6,5 9 5 W 10 -
14.10.2017 02:00:00 8,0 7,3 9 5 W 10 -
14.10.2017 01:00:00 8,0 5,8 8 4 W 10 -
14.10.2017 00:00:00 8,0 6,1 9 5 W 10 -
13.10.2017 23:00:00 8,8 7,2 9 5 W 10 -
13.10.2017 22:00:00 8,8 7,7 9 5 W 10 -
13.10.2017 21:00:00 8,8 6,2 11 6 W 10 -
13.10.2017 20:00:00 9,0 6,1 9 5 W 10 -
13.10.2017 19:00:00 9,0 8,4 9 5 W 15 0
13.10.2017 18:00:00 11,0 5,7 9 5 W 25 60
13.10.2017 17:00:00 12,0 4,0 15 8 W 10 60
13.10.2017 16:00:00 12,0 3,2 15 8 W 25 60
13.10.2017 15:00:00 12,0 5,4 11 6 WNW 25 60
13.10.2017 14:00:00 11,0 6,7 9 5 WNW 25 42
13.10.2017 13:00:00 12,0 6,1 15 8 WNW 25 60
13.10.2017 12:00:00 11,8 3,1 18 10 ENE 25 60
13.10.2017 11:00:00 10,4 3,7 18 10 NE 10 60
13.10.2017 10:00:00 9,6 1,3 22 12 ENE 25 60
13.10.2017 09:00:00 9,2 1,8 22 12 ENE 25 60
13.10.2017 08:00:00 8,2 2,0 22 12 ENE 10 42
13.10.2017 07:00:00 8,6 2,4 18 10 ENE 15 -
13.10.2017 06:00:00 8,6 2,2 18 10 NE 10 -
13.10.2017 05:00:00 8,6 2,4 15 8 NE 10 -
13.10.2017 04:00:00 8,6 2,4 15 8 NNE 10 -
13.10.2017 03:00:00 8,6 2,8 15 8 NNE 10 -
13.10.2017 02:00:00 8,6 2,6 15 8 NNE 10 -
13.10.2017 01:00:00 8,6 4,4 15 8 NNE 10 -
13.10.2017 00:00:00 8,6 4,8 15 8 NNE 10 -
12.10.2017 23:00:00 8,6 7,1 11 6 NNW 10 -
12.10.2017 22:00:00 8,6 7,1 11 6 WNW 10 -
12.10.2017 21:00:00 8,6 7,4 9 5 W 10 -
12.10.2017 20:00:00 8,4 7,7 9 5 W 10 -
12.10.2017 19:00:00 9,0 8,4 11 6 W 10 -
12.10.2017 18:00:00 9,2 8,4 9 5 W 20 12
12.10.2017 17:00:00 11,0 7,7 11 6 W 20 48
12.10.2017 16:00:00 11,8 5,9 9 5 W 25 60
12.10.2017 15:00:00 11,6 4,4 11 6 W 25 60
12.10.2017 14:00:00 12,0 5,0 11 6 W 25 60
12.10.2017 13:00:00 11,8 3,8 11 6 W 25 60
12.10.2017 12:00:00 10,6 3,4 9 5 W 25 60
12.10.2017 11:00:00 10,0 3,5 11 6 W 25 60
12.10.2017 10:00:00 9,4 0,6 5 3 NNW 30 60
12.10.2017 09:00:00 9,0 3,4 8 4 NE 25 60
12.10.2017 08:00:00 7,4 2,7 9 5 NE 10 30
12.10.2017 07:00:00 7,4 2,3 8 4 NNE 15 -
12.10.2017 06:00:00 7,6 3,8 8 4 NNE 10 -
12.10.2017 05:00:00 7,6 4,0 9 5 NE 10 -
12.10.2017 04:00:00 7,4 1,5 8 4 NNE 15 -
12.10.2017 03:00:00 7,6 1,7 9 5 NNE 15 -
12.10.2017 02:00:00 7,6 1,4 13 7 NE 15 -
12.10.2017 01:00:00 7,6 2,1 13 7 NE 15 -
12.10.2017 00:00:00 7,4 4,5 18 10 NNE 15 -
11.10.2017 23:00:00 7,4 4,2 18 10 NE 10 -
11.10.2017 22:00:00 7,4 5,0 15 8 NE 15 -
11.10.2017 21:00:00 8,0 6,8 18 10 NNE 15 -
11.10.2017 20:00:00 8,0 7,1 22 12 NNE 15 -
11.10.2017 19:00:00 8,0 7,1 18 10 NNE 10 0
11.10.2017 18:00:00 8,4 7,7 22 12 NNE 15 60
11.10.2017 17:00:00 8,4 7,3 22 12 NNE 20 30
11.10.2017 16:00:00 8,8 8,4 28 15 NNE 15 24
11.10.2017 15:00:00 9,0 7,8 13 7 NNE 10 12
11.10.2017 14:00:00 9,4 9,1 13 7 NNE - 0
11.10.2017 13:00:00 10,0 9,9 5 3 NW - 0
11.10.2017 12:00:00 10,4 10,1 4 2 NW - 18
11.10.2017 11:00:00 11,2 7,1 4 2 NNW 10 60
11.10.2017 10:00:00 9,0 7,4 16 9 NNE 20 60
11.10.2017 09:00:00 7,4 7,0 24 13 NNE 20 6

tt = Température de l'air
td = dewpoint
ff = Vitesse du vent
dd = Direction du vent
vv = visibility
sd = Ensoleillement

stations d'obs. à proximité